sensor_id;sensor_type;location;lat;lon;timestamp;temperature;humidity
45906;DHT22;31619;49.008;12.106;2023-04-02T00:00:12;9.30;99.90
45906;DHT22;31619;49.008;12.106;2023-04-02T00:03:02;9.30;99.90
45906;DHT22;31619;49.008;12.106;2023-04-02T00:05:44;9.20;99.90
45906;DHT22;31619;49.008;12.106;2023-04-02T00:08:28;9.10;99.90
45906;DHT22;31619;49.008;12.106;2023-04-02T00:11:03;8.90;99.90
45906;DHT22;31619;49.008;12.106;2023-04-02T00:13:34;8.80;99.90
45906;DHT22;31619;49.008;12.106;2023-04-02T00:16:02;8.60;99.90
45906;DHT22;31619;49.008;12.106;2023-04-02T00:18:29;8.50;99.90
45906;DHT22;31619;49.008;12.106;2023-04-02T00:21:06;8.40;99.90
45906;DHT22;31619;49.008;12.106;2023-04-02T00:23:39;8.30;99.90
45906;DHT22;31619;49.008;12.106;2023-04-02T00:26:22;8.20;99.90
45906;DHT22;31619;49.008;12.106;2023-04-02T00:28:49;8.20;99.90
45906;DHT22;31619;49.008;12.106;2023-04-02T00:31:16;8.10;99.90
45906;DHT22;31619;49.008;12.106;2023-04-02T00:33:43;8.10;99.90
45906;DHT22;31619;49.008;12.106;2023-04-02T00:36:08;8.00;99.90
45906;DHT22;31619;49.008;12.106;2023-04-02T00:38:34;8.10;99.90
45906;DHT22;31619;49.008;12.106;2023-04-02T00:41:05;8.10;99.90
45906;DHT22;31619;49.008;12.106;2023-04-02T00:43:36;8.00;99.90
45906;DHT22;31619;49.008;12.106;2023-04-02T00:46:18;8.00;99.90
45906;DHT22;31619;49.008;12.106;2023-04-02T00:48:58;8.00;99.90
45906;DHT22;31619;49.008;12.106;2023-04-02T00:51:34;7.90;99.90
45906;DHT22;31619;49.008;12.106;2023-04-02T00:54:04;8.00;99.90
45906;DHT22;31619;49.008;12.106;2023-04-02T00:56:36;8.10;99.90
45906;DHT22;31619;49.008;12.106;2023-04-02T00:59:03;8.00;99.90
45906;DHT22;31619;49.008;12.106;2023-04-02T01:01:38;8.00;99.90
45906;DHT22;31619;49.008;12.106;2023-04-02T01:04:26;7.90;99.90
45906;DHT22;31619;49.008;12.106;2023-04-02T01:06:53;8.00;99.90
45906;DHT22;31619;49.008;12.106;2023-04-02T01:12:43;7.90;99.90
45906;DHT22;31619;49.008;12.106;2023-04-02T01:15:29;7.90;99.90
45906;DHT22;31619;49.008;12.106;2023-04-02T01:29:00;7.80;99.90
45906;DHT22;31619;49.008;12.106;2023-04-02T01:31:27;7.80;99.90
45906;DHT22;31619;49.008;12.106;2023-04-02T01:33:54;7.90;99.90
45906;DHT22;31619;49.008;12.106;2023-04-02T01:42:31;7.80;99.90
45906;DHT22;31619;49.008;12.106;2023-04-02T01:45:03;7.80;99.90
45906;DHT22;31619;49.008;12.106;2023-04-02T01:47:30;7.80;99.90
45906;DHT22;31619;49.008;12.106;2023-04-02T01:50:02;7.90;99.90
45906;DHT22;31619;49.008;12.106;2023-04-02T01:52:38;7.90;99.90
45906;DHT22;31619;49.008;12.106;2023-04-02T01:55:09;7.80;99.90
45906;DHT22;31619;49.008;12.106;2023-04-02T01:57:39;7.90;99.90
45906;DHT22;31619;49.008;12.106;2023-04-02T02:00:07;7.90;99.90
45906;DHT22;31619;49.008;12.106;2023-04-02T02:02:37;7.90;99.90
45906;DHT22;31619;49.008;12.106;2023-04-02T02:05:03;7.90;99.90
45906;DHT22;31619;49.008;12.106;2023-04-02T02:07:29;8.00;99.90
45906;DHT22;31619;49.008;12.106;2023-04-02T02:09:55;8.00;99.90
45906;DHT22;31619;49.008;12.106;2023-04-02T02:12:21;8.00;99.90
45906;DHT22;31619;49.008;12.106;2023-04-02T02:14:50;8.00;99.90
45906;DHT22;31619;49.008;12.106;2023-04-02T02:17:20;8.00;99.90
45906;DHT22;31619;49.008;12.106;2023-04-02T02:19:51;8.00;99.90
45906;DHT22;31619;49.008;12.106;2023-04-02T02:24:50;7.90;99.90
45906;DHT22;31619;49.008;12.106;2023-04-02T02:32:28;7.90;99.90
45906;DHT22;31619;49.008;12.106;2023-04-02T02:37:28;7.90;99.90
45906;DHT22;31619;49.008;12.106;2023-04-02T02:39:57;7.90;99.90
45906;DHT22;31619;49.008;12.106;2023-04-02T02:42:27;7.90;99.90
45906;DHT22;31619;49.008;12.106;2023-04-02T02:44:56;8.00;99.90
45906;DHT22;31619;49.008;12.106;2023-04-02T02:47:25;8.00;99.90
45906;DHT22;31619;49.008;12.106;2023-04-02T02:49:55;7.90;99.90
45906;DHT22;31619;49.008;12.106;2023-04-02T02:52:25;8.00;99.90
45906;DHT22;31619;49.008;12.106;2023-04-02T02:54:54;7.90;99.90
45906;DHT22;31619;49.008;12.106;2023-04-02T02:57:27;8.00;99.90
45906;DHT22;31619;49.008;12.106;2023-04-02T02:59:56;8.00;99.90
45906;DHT22;31619;49.008;12.106;2023-04-02T03:02:23;8.00;99.90
45906;DHT22;31619;49.008;12.106;2023-04-02T03:04:51;7.90;99.90
45906;DHT22;31619;49.008;12.106;2023-04-02T03:07:19;7.90;99.90
45906;DHT22;31619;49.008;12.106;2023-04-02T03:15:42;7.90;99.90
45906;DHT22;31619;49.008;12.106;2023-04-02T03:23:42;8.00;99.90
45906;DHT22;31619;49.008;12.106;2023-04-02T03:28:58;7.90;99.90
45906;DHT22;31619;49.008;12.106;2023-04-02T03:31:36;7.90;99.90
45906;DHT22;31619;49.008;12.106;2023-04-02T03:34:29;7.80;99.90
45906;DHT22;31619;49.008;12.106;2023-04-02T03:37:33;7.80;99.90
45906;DHT22;31619;49.008;12.106;2023-04-02T03:40:04;7.70;99.90
45906;DHT22;31619;49.008;12.106;2023-04-02T03:42:43;7.80;99.90
45906;DHT22;31619;49.008;12.106;2023-04-02T03:45:20;7.80;99.90
45906;DHT22;31619;49.008;12.106;2023-04-02T03:48:02;7.80;99.90
45906;DHT22;31619;49.008;12.106;2023-04-02T03:50:53;7.80;99.90
45906;DHT22;31619;49.008;12.106;2023-04-02T03:53:22;7.80;99.90
45906;DHT22;31619;49.008;12.106;2023-04-02T03:55:49;7.80;99.90
45906;DHT22;31619;49.008;12.106;2023-04-02T04:00:58;7.90;99.90
45906;DHT22;31619;49.008;12.106;2023-04-02T04:03:38;7.90;99.90
45906;DHT22;31619;49.008;12.106;2023-04-02T04:06:13;7.90;99.90
45906;DHT22;31619;49.008;12.106;2023-04-02T04:11:36;8.00;99.90
45906;DHT22;31619;49.008;12.106;2023-04-02T04:14:13;8.00;99.90
45906;DHT22;31619;49.008;12.106;2023-04-02T04:17:01;7.90;99.90
45906;DHT22;31619;49.008;12.106;2023-04-02T04:19:51;7.90;99.90
45906;DHT22;31619;49.008;12.106;2023-04-02T04:22:24;8.00;99.90
45906;DHT22;31619;49.008;12.106;2023-04-02T04:24:59;8.00;99.90
45906;DHT22;31619;49.008;12.106;2023-04-02T04:27:27;7.90;99.90
45906;DHT22;31619;49.008;12.106;2023-04-02T04:30:32;7.90;99.90
45906;DHT22;31619;49.008;12.106;2023-04-02T04:33:10;7.90;99.90
45906;DHT22;31619;49.008;12.106;2023-04-02T04:35:46;8.00;99.90
45906;DHT22;31619;49.008;12.106;2023-04-02T04:38:18;8.00;99.90
45906;DHT22;31619;49.008;12.106;2023-04-02T04:40:55;8.00;99.90
45906;DHT22;31619;49.008;12.106;2023-04-02T04:43:37;8.00;99.90
45906;DHT22;31619;49.008;12.106;2023-04-02T04:46:09;8.10;99.90
45906;DHT22;31619;49.008;12.106;2023-04-02T04:51:24;8.00;99.90
45906;DHT22;31619;49.008;12.106;2023-04-02T04:53:53;8.00;99.90
45906;DHT22;31619;49.008;12.106;2023-04-02T04:56:28;8.00;99.90
45906;DHT22;31619;49.008;12.106;2023-04-02T05:04:11;8.00;99.90
45906;DHT22;31619;49.008;12.106;2023-04-02T05:07:02;8.10;99.90
45906;DHT22;31619;49.008;12.106;2023-04-02T05:09:42;8.10;99.90
45906;DHT22;31619;49.008;12.106;2023-04-02T05:20:17;8.10;99.90
45906;DHT22;31619;49.008;12.106;2023-04-02T05:23:36;8.10;99.90
45906;DHT22;31619;49.008;12.106;2023-04-02T05:25:36;8.10;99.90
45906;DHT22;31619;49.008;12.106;2023-04-02T05:28:16;8.10;99.90
45906;DHT22;31619;49.008;12.106;2023-04-02T05:30:45;8.10;99.90
45906;DHT22;31619;49.008;12.106;2023-04-02T05:33:25;8.00;99.90
45906;DHT22;31619;49.008;12.106;2023-04-02T05:36:24;8.00;99.90
45906;DHT22;31619;49.008;12.106;2023-04-02T05:38:51;8.10;99.90
45906;DHT22;31619;49.008;12.106;2023-04-02T05:41:28;8.10;99.90
45906;DHT22;31619;49.008;12.106;2023-04-02T05:44:20;8.10;99.90
45906;DHT22;31619;49.008;12.106;2023-04-02T05:47:00;8.10;99.90
45906;DHT22;31619;49.008;12.106;2023-04-02T05:52:07;8.00;99.90
45906;DHT22;31619;49.008;12.106;2023-04-02T05:54:38;8.10;99.90
45906;DHT22;31619;49.008;12.106;2023-04-02T05:57:33;8.10;99.90
45906;DHT22;31619;49.008;12.106;2023-04-02T06:00:05;8.20;99.90
45906;DHT22;31619;49.008;12.106;2023-04-02T06:02:46;8.20;99.90
45906;DHT22;31619;49.008;12.106;2023-04-02T06:05:21;8.20;99.90
45906;DHT22;31619;49.008;12.106;2023-04-02T06:08:13;8.30;99.90
45906;DHT22;31619;49.008;12.106;2023-04-02T06:11:16;8.30;99.90
45906;DHT22;31619;49.008;12.106;2023-04-02T06:13:38;8.20;99.90
45906;DHT22;31619;49.008;12.106;2023-04-02T06:16:05;8.20;99.90
45906;DHT22;31619;49.008;12.106;2023-04-02T06:18:34;8.20;99.90
45906;DHT22;31619;49.008;12.106;2023-04-02T06:21:02;8.30;99.90
45906;DHT22;31619;49.008;12.106;2023-04-02T06:23:40;8.30;99.90
45906;DHT22;31619;49.008;12.106;2023-04-02T06:28:53;8.30;99.90
45906;DHT22;31619;49.008;12.106;2023-04-02T06:31:54;8.40;99.90
45906;DHT22;31619;49.008;12.106;2023-04-02T06:34:23;8.40;99.90
45906;DHT22;31619;49.008;12.106;2023-04-02T06:36:53;8.50;99.90
45906;DHT22;31619;49.008;12.106;2023-04-02T06:39:22;8.50;99.90
45906;DHT22;31619;49.008;12.106;2023-04-02T06:42:06;8.60;99.90
45906;DHT22;31619;49.008;12.106;2023-04-02T06:44:36;8.60;99.90
45906;DHT22;31619;49.008;12.106;2023-04-02T06:47:10;8.70;99.90
45906;DHT22;31619;49.008;12.106;2023-04-02T06:52:47;8.90;99.90
45906;DHT22;31619;49.008;12.106;2023-04-02T06:58:04;9.10;99.90
45906;DHT22;31619;49.008;12.106;2023-04-02T07:00:37;9.20;99.90
45906;DHT22;31619;49.008;12.106;2023-04-02T07:03:06;9.20;99.90
45906;DHT22;31619;49.008;12.106;2023-04-02T07:05:32;9.30;99.90
45906;DHT22;31619;49.008;12.106;2023-04-02T07:07:57;9.40;99.90
45906;DHT22;31619;49.008;12.106;2023-04-02T07:10:23;9.30;99.90
45906;DHT22;31619;49.008;12.106;2023-04-02T07:12:49;9.30;99.90
45906;DHT22;31619;49.008;12.106;2023-04-02T07:15:16;9.30;99.90
45906;DHT22;31619;49.008;12.106;2023-04-02T07:17:44;9.40;99.90
45906;DHT22;31619;49.008;12.106;2023-04-02T07:20:31;9.50;99.90
45906;DHT22;31619;49.008;12.106;2023-04-02T07:22:57;9.60;99.90
45906;DHT22;31619;49.008;12.106;2023-04-02T07:25:25;9.60;99.90
45906;DHT22;31619;49.008;12.106;2023-04-02T07:27:52;9.70;99.90
45906;DHT22;31619;49.008;12.106;2023-04-02T07:30:18;9.80;99.90
45906;DHT22;31619;49.008;12.106;2023-04-02T07:32:44;9.90;99.90
45906;DHT22;31619;49.008;12.106;2023-04-02T07:35:10;10.10;99.90
45906;DHT22;31619;49.008;12.106;2023-04-02T07:37:36;10.10;99.90
45906;DHT22;31619;49.008;12.106;2023-04-02T07:40:04;10.00;99.90
45906;DHT22;31619;49.008;12.106;2023-04-02T07:42:30;10.00;99.90
45906;DHT22;31619;49.008;12.106;2023-04-02T07:44:56;9.90;99.90
45906;DHT22;31619;49.008;12.106;2023-04-02T07:47:22;9.70;99.90
45906;DHT22;31619;49.008;12.106;2023-04-02T07:49:47;9.60;99.90
45906;DHT22;31619;49.008;12.106;2023-04-02T07:52:13;9.70;99.90
45906;DHT22;31619;49.008;12.106;2023-04-02T07:54:39;9.80;99.90
45906;DHT22;31619;49.008;12.106;2023-04-02T07:57:04;9.90;99.90
45906;DHT22;31619;49.008;12.106;2023-04-02T07:59:30;10.00;99.90
45906;DHT22;31619;49.008;12.106;2023-04-02T08:01:56;10.10;99.90
45906;DHT22;31619;49.008;12.106;2023-04-02T08:04:22;10.10;99.90
45906;DHT22;31619;49.008;12.106;2023-04-02T08:06:48;10.20;99.90
45906;DHT22;31619;49.008;12.106;2023-04-02T08:09:16;10.30;99.90
45906;DHT22;31619;49.008;12.106;2023-04-02T08:11:42;10.40;99.90
45906;DHT22;31619;49.008;12.106;2023-04-02T08:14:10;10.60;99.90
45906;DHT22;31619;49.008;12.106;2023-04-02T08:16:51;10.60;99.90
45906;DHT22;31619;49.008;12.106;2023-04-02T08:19:17;10.60;99.90
45906;DHT22;31619;49.008;12.106;2023-04-02T08:21:44;10.50;99.90
45906;DHT22;31619;49.008;12.106;2023-04-02T08:24:09;10.40;99.90
45906;DHT22;31619;49.008;12.106;2023-04-02T08:26:35;10.20;99.90
45906;DHT22;31619;49.008;12.106;2023-04-02T08:29:02;10.10;99.90
45906;DHT22;31619;49.008;12.106;2023-04-02T08:31:27;10.20;99.90
45906;DHT22;31619;49.008;12.106;2023-04-02T08:33:54;10.10;99.90
45906;DHT22;31619;49.008;12.106;2023-04-02T08:36:28;10.20;99.90
45906;DHT22;31619;49.008;12.106;2023-04-02T08:38:54;10.20;99.90
45906;DHT22;31619;49.008;12.106;2023-04-02T08:41:25;10.10;99.90
45906;DHT22;31619;49.008;12.106;2023-04-02T08:46:45;9.90;99.90
45906;DHT22;31619;49.008;12.106;2023-04-02T08:49:29;9.80;99.90
45906;DHT22;31619;49.008;12.106;2023-04-02T08:51:56;9.70;99.90
45906;DHT22;31619;49.008;12.106;2023-04-02T08:54:35;9.70;99.90
45906;DHT22;31619;49.008;12.106;2023-04-02T08:59:49;9.70;99.90
45906;DHT22;31619;49.008;12.106;2023-04-02T09:04:50;9.80;99.90
45906;DHT22;31619;49.008;12.106;2023-04-02T09:07:16;9.80;99.90
45906;DHT22;31619;49.008;12.106;2023-04-02T09:09:46;9.90;99.90
45906;DHT22;31619;49.008;12.106;2023-04-02T09:12:23;9.90;99.90
45906;DHT22;31619;49.008;12.106;2023-04-02T09:17:34;10.10;99.90
45906;DHT22;31619;49.008;12.106;2023-04-02T09:20:20;10.00;99.90
45906;DHT22;31619;49.008;12.106;2023-04-02T09:22:49;10.00;99.90
45906;DHT22;31619;49.008;12.106;2023-04-02T09:25:21;10.10;99.90
45906;DHT22;31619;49.008;12.106;2023-04-02T09:27:52;10.00;99.90
45906;DHT22;31619;49.008;12.106;2023-04-02T09:32:57;10.40;99.90
45906;DHT22;31619;49.008;12.106;2023-04-02T09:35:26;10.60;99.90
45906;DHT22;31619;49.008;12.106;2023-04-02T09:38:10;10.60;99.90
45906;DHT22;31619;49.008;12.106;2023-04-02T09:43:13;10.50;99.90
45906;DHT22;31619;49.008;12.106;2023-04-02T09:45:42;10.50;99.90
45906;DHT22;31619;49.008;12.106;2023-04-02T09:51:19;10.60;99.90
45906;DHT22;31619;49.008;12.106;2023-04-02T09:56:22;10.60;99.90
45906;DHT22;31619;49.008;12.106;2023-04-02T10:01:34;10.40;99.90
45906;DHT22;31619;49.008;12.106;2023-04-02T10:04:02;10.30;99.90
45906;DHT22;31619;49.008;12.106;2023-04-02T10:06:29;10.40;99.90
45906;DHT22;31619;49.008;12.106;2023-04-02T10:08:56;10.50;99.90
45906;DHT22;31619;49.008;12.106;2023-04-02T10:11:33;10.70;99.90
45906;DHT22;31619;49.008;12.106;2023-04-02T10:14:03;10.70;99.90
45906;DHT22;31619;49.008;12.106;2023-04-02T10:16:43;10.40;99.90
45906;DHT22;31619;49.008;12.106;2023-04-02T10:20:04;10.10;99.90
45906;DHT22;31619;49.008;12.106;2023-04-02T10:22:14;9.90;99.90
45906;DHT22;31619;49.008;12.106;2023-04-02T10:24:40;10.00;99.90
45906;DHT22;31619;49.008;12.106;2023-04-02T10:27:18;10.30;99.90
45906;DHT22;31619;49.008;12.106;2023-04-02T10:35:39;10.70;99.90
45906;DHT22;31619;49.008;12.106;2023-04-02T10:44:10;10.60;99.90
45906;DHT22;31619;49.008;12.106;2023-04-02T10:49:24;10.00;99.90
45906;DHT22;31619;49.008;12.106;2023-04-02T10:52:02;10.10;99.90
45906;DHT22;31619;49.008;12.106;2023-04-02T10:54:52;10.00;99.90
45906;DHT22;31619;49.008;12.106;2023-04-02T11:05:47;9.60;99.90
45906;DHT22;31619;49.008;12.106;2023-04-02T11:11:16;9.80;99.90
45906;DHT22;31619;49.008;12.106;2023-04-02T11:16:17;10.40;99.90
45906;DHT22;31619;49.008;12.106;2023-04-02T11:30:16;10.60;99.90
45906;DHT22;31619;49.008;12.106;2023-04-02T11:32:48;10.60;99.90
45906;DHT22;31619;49.008;12.106;2023-04-02T11:38:48;10.60;99.90
45906;DHT22;31619;49.008;12.106;2023-04-02T11:40:49;10.50;99.90
45906;DHT22;31619;49.008;12.106;2023-04-02T11:48:30;10.80;99.90
45906;DHT22;31619;49.008;12.106;2023-04-02T11:50:58;10.90;99.90
45906;DHT22;31619;49.008;12.106;2023-04-02T11:53:33;11.50;99.90
45906;DHT22;31619;49.008;12.106;2023-04-02T11:56:18;12.30;99.90
45906;DHT22;31619;49.008;12.106;2023-04-02T12:01:33;14.20;99.90
45906;DHT22;31619;49.008;12.106;2023-04-02T12:04:15;15.40;99.90
45906;DHT22;31619;49.008;12.106;2023-04-02T12:09:49;17.50;99.90
45906;DHT22;31619;49.008;12.106;2023-04-02T12:12:32;18.30;99.90
45906;DHT22;31619;49.008;12.106;2023-04-02T12:14:59;19.00;99.90
45906;DHT22;31619;49.008;12.106;2023-04-02T12:19:54;18.30;99.90
45906;DHT22;31619;49.008;12.106;2023-04-02T12:22:45;17.90;99.90
45906;DHT22;31619;49.008;12.106;2023-04-02T12:25:20;17.70;99.90
45906;DHT22;31619;49.008;12.106;2023-04-02T12:27:47;17.20;99.90
45906;DHT22;31619;49.008;12.106;2023-04-02T12:30:27;17.00;99.90
45906;DHT22;31619;49.008;12.106;2023-04-02T12:32:52;16.30;99.90
45906;DHT22;31619;49.008;12.106;2023-04-02T12:35:28;15.60;99.90
45906;DHT22;31619;49.008;12.106;2023-04-02T12:37:55;14.90;99.90
45906;DHT22;31619;49.008;12.106;2023-04-02T12:40:23;14.40;99.90
45906;DHT22;31619;49.008;12.106;2023-04-02T12:42:49;14.10;99.90
45906;DHT22;31619;49.008;12.106;2023-04-02T12:45:41;13.90;99.90
45906;DHT22;31619;49.008;12.106;2023-04-02T12:48:10;13.70;99.90
45906;DHT22;31619;49.008;12.106;2023-04-02T12:50:38;13.80;99.90
45906;DHT22;31619;49.008;12.106;2023-04-02T12:53:24;14.00;99.90
45906;DHT22;31619;49.008;12.106;2023-04-02T12:55:51;14.80;99.90
45906;DHT22;31619;49.008;12.106;2023-04-02T12:58:31;16.00;99.90
45906;DHT22;31619;49.008;12.106;2023-04-02T13:01:30;16.80;99.90
45906;DHT22;31619;49.008;12.106;2023-04-02T13:04:10;17.10;99.90
45906;DHT22;31619;49.008;12.106;2023-04-02T13:06:45;16.90;99.90
45906;DHT22;31619;49.008;12.106;2023-04-02T13:09:38;16.50;99.90
45906;DHT22;31619;49.008;12.106;2023-04-02T13:12:30;16.00;99.90
45906;DHT22;31619;49.008;12.106;2023-04-02T13:14:58;15.40;99.90
45906;DHT22;31619;49.008;12.106;2023-04-02T13:20:32;14.80;99.90
45906;DHT22;31619;49.008;12.106;2023-04-02T13:22:59;14.50;99.90
45906;DHT22;31619;49.008;12.106;2023-04-02T13:25:30;14.00;99.90
45906;DHT22;31619;49.008;12.106;2023-04-02T13:27:57;13.80;99.90
45906;DHT22;31619;49.008;12.106;2023-04-02T13:30:25;13.90;99.90
45906;DHT22;31619;49.008;12.106;2023-04-02T13:32:51;14.20;99.90
45906;DHT22;31619;49.008;12.106;2023-04-02T13:35:17;14.10;99.90
45906;DHT22;31619;49.008;12.106;2023-04-02T13:37:43;13.90;99.90
45906;DHT22;31619;49.008;12.106;2023-04-02T13:40:13;13.50;99.90
45906;DHT22;31619;49.008;12.106;2023-04-02T13:42:43;13.00;99.90
45906;DHT22;31619;49.008;12.106;2023-04-02T13:45:22;12.70;99.90
45906;DHT22;31619;49.008;12.106;2023-04-02T13:47:49;12.60;99.90
45906;DHT22;31619;49.008;12.106;2023-04-02T13:50:17;12.10;99.90
45906;DHT22;31619;49.008;12.106;2023-04-02T13:52:50;11.90;99.90
45906;DHT22;31619;49.008;12.106;2023-04-02T13:55:18;11.80;99.90
45906;DHT22;31619;49.008;12.106;2023-04-02T13:57:48;11.60;99.90
45906;DHT22;31619;49.008;12.106;2023-04-02T14:00:15;11.40;99.90
45906;DHT22;31619;49.008;12.106;2023-04-02T14:02:46;11.20;99.90
45906;DHT22;31619;49.008;12.106;2023-04-02T14:05:22;11.20;99.90
45906;DHT22;31619;49.008;12.106;2023-04-02T14:16:00;11.00;99.90
45906;DHT22;31619;49.008;12.106;2023-04-02T14:21:34;10.50;99.90
45906;DHT22;31619;49.008;12.106;2023-04-02T14:24:15;10.30;99.90
45906;DHT22;31619;49.008;12.106;2023-04-02T14:26:46;10.00;99.90
45906;DHT22;31619;49.008;12.106;2023-04-02T14:29:38;9.80;99.90
45906;DHT22;31619;49.008;12.106;2023-04-02T14:32:10;9.50;99.90
45906;DHT22;31619;49.008;12.106;2023-04-02T14:34:40;9.50;99.90
45906;DHT22;31619;49.008;12.106;2023-04-02T14:40:18;9.70;99.90
45906;DHT22;31619;49.008;12.106;2023-04-02T14:43:15;10.10;99.90
45906;DHT22;31619;49.008;12.106;2023-04-02T14:46:01;10.50;99.90
45906;DHT22;31619;49.008;12.106;2023-04-02T14:48:45;10.90;99.90
45906;DHT22;31619;49.008;12.106;2023-04-02T14:51:38;11.40;99.90
45906;DHT22;31619;49.008;12.106;2023-04-02T14:57:08;12.60;99.90
45906;DHT22;31619;49.008;12.106;2023-04-02T15:02:42;13.80;99.90
45906;DHT22;31619;49.008;12.106;2023-04-02T15:10:34;13.70;99.90
45906;DHT22;31619;49.008;12.106;2023-04-02T15:13:07;13.50;99.90
45906;DHT22;31619;49.008;12.106;2023-04-02T15:15:43;12.90;99.90
45906;DHT22;31619;49.008;12.106;2023-04-02T15:18:13;12.50;99.90
45906;DHT22;31619;49.008;12.106;2023-04-02T15:26:18;11.60;99.90
45906;DHT22;31619;49.008;12.106;2023-04-02T15:28:53;11.30;99.90
45906;DHT22;31619;49.008;12.106;2023-04-02T15:31:26;10.90;99.90
45906;DHT22;31619;49.008;12.106;2023-04-02T15:44:22;10.60;99.90
45906;DHT22;31619;49.008;12.106;2023-04-02T15:49:53;10.30;99.90
45906;DHT22;31619;49.008;12.106;2023-04-02T15:52:51;10.20;99.90
45906;DHT22;31619;49.008;12.106;2023-04-02T15:55:24;10.20;99.90
45906;DHT22;31619;49.008;12.106;2023-04-02T16:03:19;9.80;99.90
45906;DHT22;31619;49.008;12.106;2023-04-02T16:10:57;9.40;99.90
45906;DHT22;31619;49.008;12.106;2023-04-02T16:13:30;9.30;99.90
45906;DHT22;31619;49.008;12.106;2023-04-02T16:18:55;9.20;99.90
45906;DHT22;31619;49.008;12.106;2023-04-02T16:21:26;9.00;99.90
45906;DHT22;31619;49.008;12.106;2023-04-02T16:23:53;8.90;99.90
45906;DHT22;31619;49.008;12.106;2023-04-02T16:29:11;8.80;99.90
45906;DHT22;31619;49.008;12.106;2023-04-02T16:32:47;8.70;99.90
45906;DHT22;31619;49.008;12.106;2023-04-02T16:35:16;8.60;99.90
45906;DHT22;31619;49.008;12.106;2023-04-02T16:40:50;8.50;99.90
45906;DHT22;31619;49.008;12.106;2023-04-02T16:43:36;8.50;99.90
45906;DHT22;31619;49.008;12.106;2023-04-02T17:05:31;7.90;99.90
45906;DHT22;31619;49.008;12.106;2023-04-02T17:08:25;7.80;99.90
45906;DHT22;31619;49.008;12.106;2023-04-02T17:15:52;7.40;99.90
45906;DHT22;31619;49.008;12.106;2023-04-02T17:18:20;7.30;99.90
45906;DHT22;31619;49.008;12.106;2023-04-02T17:20:49;7.10;99.90
45906;DHT22;31619;49.008;12.106;2023-04-02T17:23:16;6.90;99.90
45906;DHT22;31619;49.008;12.106;2023-04-02T17:25:56;6.70;99.90
45906;DHT22;31619;49.008;12.106;2023-04-02T17:28:26;6.50;99.90
45906;DHT22;31619;49.008;12.106;2023-04-02T17:30:56;6.40;99.90
45906;DHT22;31619;49.008;12.106;2023-04-02T17:33:22;6.40;99.90
45906;DHT22;31619;49.008;12.106;2023-04-02T17:41:39;6.30;99.90
45906;DHT22;31619;49.008;12.106;2023-04-02T17:44:42;6.20;99.90
45906;DHT22;31619;49.008;12.106;2023-04-02T17:47:23;6.10;99.90
45906;DHT22;31619;49.008;12.106;2023-04-02T17:50:28;6.10;99.90
45906;DHT22;31619;49.008;12.106;2023-04-02T17:53:01;6.00;99.90
45906;DHT22;31619;49.008;12.106;2023-04-02T18:04:17;5.90;99.90
45906;DHT22;31619;49.008;12.106;2023-04-02T18:12:09;5.70;99.90
45906;DHT22;31619;49.008;12.106;2023-04-02T18:17:33;5.50;99.90
45906;DHT22;31619;49.008;12.106;2023-04-02T18:20:23;5.50;99.90
45906;DHT22;31619;49.008;12.106;2023-04-02T18:28:39;5.40;99.90
45906;DHT22;31619;49.008;12.106;2023-04-02T18:44:57;5.40;99.90
45906;DHT22;31619;49.008;12.106;2023-04-02T18:47:46;5.40;99.90
45906;DHT22;31619;49.008;12.106;2023-04-02T18:50:27;5.40;99.90
45906;DHT22;31619;49.008;12.106;2023-04-02T18:52:53;5.40;99.90
45906;DHT22;31619;49.008;12.106;2023-04-02T18:55:38;5.40;99.90
45906;DHT22;31619;49.008;12.106;2023-04-02T18:58:13;5.40;99.90
45906;DHT22;31619;49.008;12.106;2023-04-02T19:00:42;5.50;99.90
45906;DHT22;31619;49.008;12.106;2023-04-02T19:03:22;5.50;99.90
45906;DHT22;31619;49.008;12.106;2023-04-02T19:06:08;5.50;99.90
45906;DHT22;31619;49.008;12.106;2023-04-02T19:08:54;5.40;99.90
45906;DHT22;31619;49.008;12.106;2023-04-02T19:11:23;5.40;99.90
45906;DHT22;31619;49.008;12.106;2023-04-02T19:14:00;5.30;99.90
45906;DHT22;31619;49.008;12.106;2023-04-02T19:23:51;5.20;99.90
45906;DHT22;31619;49.008;12.106;2023-04-02T19:30:57;5.40;99.90
45906;DHT22;31619;49.008;12.106;2023-04-02T19:33:49;5.40;99.90
45906;DHT22;31619;49.008;12.106;2023-04-02T19:41:30;5.30;99.90
45906;DHT22;31619;49.008;12.106;2023-04-02T19:43:57;5.20;99.90
45906;DHT22;31619;49.008;12.106;2023-04-02T19:46:23;5.10;99.90
45906;DHT22;31619;49.008;12.106;2023-04-02T19:49:14;5.20;99.90
45906;DHT22;31619;49.008;12.106;2023-04-02T19:51:42;5.20;99.90
45906;DHT22;31619;49.008;12.106;2023-04-02T19:54:08;5.20;99.90
45906;DHT22;31619;49.008;12.106;2023-04-02T19:56:34;5.20;99.90
45906;DHT22;31619;49.008;12.106;2023-04-02T19:58:59;5.30;99.90
45906;DHT22;31619;49.008;12.106;2023-04-02T20:01:25;5.30;99.90
45906;DHT22;31619;49.008;12.106;2023-04-02T20:03:51;5.30;99.90
45906;DHT22;31619;49.008;12.106;2023-04-02T20:06:16;5.30;99.90
45906;DHT22;31619;49.008;12.106;2023-04-02T20:08:42;5.20;99.90
45906;DHT22;31619;49.008;12.106;2023-04-02T20:11:08;5.20;99.90
45906;DHT22;31619;49.008;12.106;2023-04-02T20:13:34;5.20;99.90
45906;DHT22;31619;49.008;12.106;2023-04-02T20:16:01;5.20;99.90
45906;DHT22;31619;49.008;12.106;2023-04-02T20:18:28;5.20;99.90
45906;DHT22;31619;49.008;12.106;2023-04-02T20:20:54;5.20;99.90
45906;DHT22;31619;49.008;12.106;2023-04-02T20:23:20;5.20;99.90
45906;DHT22;31619;49.008;12.106;2023-04-02T20:25:55;5.20;99.90
45906;DHT22;31619;49.008;12.106;2023-04-02T20:28:22;5.30;99.90
45906;DHT22;31619;49.008;12.106;2023-04-02T20:30:48;5.20;99.90
45906;DHT22;31619;49.008;12.106;2023-04-02T20:33:18;5.20;99.90
45906;DHT22;31619;49.008;12.106;2023-04-02T20:35:44;5.20;99.90
45906;DHT22;31619;49.008;12.106;2023-04-02T20:38:10;5.20;99.90
45906;DHT22;31619;49.008;12.106;2023-04-02T20:40:38;5.30;99.90
45906;DHT22;31619;49.008;12.106;2023-04-02T20:43:03;5.30;99.90
45906;DHT22;31619;49.008;12.106;2023-04-02T20:45:29;5.20;99.90
45906;DHT22;31619;49.008;12.106;2023-04-02T20:47:55;5.20;99.90
45906;DHT22;31619;49.008;12.106;2023-04-02T20:50:21;5.20;99.90
45906;DHT22;31619;49.008;12.106;2023-04-02T20:52:47;5.20;99.90
45906;DHT22;31619;49.008;12.106;2023-04-02T20:55:13;5.20;99.90
45906;DHT22;31619;49.008;12.106;2023-04-02T20:57:38;5.20;99.90
45906;DHT22;31619;49.008;12.106;2023-04-02T21:00:05;5.20;99.90
45906;DHT22;31619;49.008;12.106;2023-04-02T21:02:32;5.10;99.90
45906;DHT22;31619;49.008;12.106;2023-04-02T21:04:58;5.10;99.90
45906;DHT22;31619;49.008;12.106;2023-04-02T21:07:24;5.10;99.90
45906;DHT22;31619;49.008;12.106;2023-04-02T21:09:50;5.10;99.90